Time,TemperatureF,DewpointF,PressureIn,WindDirection,WindDirectionDegrees,WindSpeedMPH,WindSpeedGustMPH,Humidity,HourlyPrecipIn,Conditions,Clouds,dailyrainin,SoftwareType,DateUTC
2013-09-21 00:00:00,68.0,63.4,29.87,NW,320,0.0,1.0,85,0.00,CLR,,0.00,WeatherDisplay:10.37,2013-09-20 14:00:00,
2013-09-21 00:10:00,67.8,63.1,29.87,NW,320,0.0,0.0,85,0.00,CLR,,0.00,WeatherDisplay:10.37,2013-09-20 14:10:00,
2013-09-21 00:15:00,67.6,62.9,29.87,NW,320,0.0,2.0,85,0.00,CLR,,0.00,WeatherDisplay:10.37,2013-09-20 14:15:00,
2013-09-21 00:20:00,67.5,63.2,29.87,NW,320,0.0,1.0,86,0.00,CLR,,0.00,WeatherDisplay:10.37,2013-09-20 14:20:00,
2013-09-21 00:25:00,67.4,63.1,29.87,NW,320,0.0,1.0,86,0.00,CLR,,0.00,WeatherDisplay:10.37,2013-09-20 14:25:00,
2013-09-21 00:30:00,67.2,62.9,29.86,NW,320,0.0,1.0,86,0.00,CLR,,0.00,WeatherDisplay:10.37,2013-09-20 14:30:00,
2013-09-21 00:35:00,67.2,62.8,29.86,NW,320,0.0,1.0,86,0.00,CLR,,0.00,WeatherDisplay:10.37,2013-09-20 14:35:00,
2013-09-21 00:40:00,67.1,62.8,29.86,NW,320,0.0,2.0,86,0.00,CLR,,0.00,WeatherDisplay:10.37,2013-09-20 14:40:00,
2013-09-21 00:45:00,67.1,62.8,29.86,NW,320,1.0,2.0,86,0.00,CLR,,0.00,WeatherDisplay:10.37,2013-09-20 14:45:00,
2013-09-21 00:50:00,67.1,62.8,29.85,NW,320,0.0,1.0,86,0.00,CLR,,0.00,WeatherDisplay:10.37,2013-09-20 14:50:00,
2013-09-21 00:55:00,67.1,62.8,29.85,NW,320,0.0,2.0,86,0.00,CLR,,0.00,WeatherDisplay:10.37,2013-09-20 14:55:00,
2013-09-21 01:00:00,67.1,62.8,29.85,NW,320,0.0,1.0,86,0.00,CLR,,0.00,WeatherDisplay:10.37,2013-09-20 15:00:00,
2013-09-21 01:10:00,67.1,62.8,29.85,NW,320,0.0,0.0,86,0.00,CLR,,0.00,WeatherDisplay:10.37,2013-09-20 15:10:00,
2013-09-21 01:15:00,67.0,62.7,29.85,NW,320,0.0,0.0,86,0.00,CLR,,0.00,WeatherDisplay:10.37,2013-09-20 15:15:00,
2013-09-21 01:20:00,66.9,62.5,29.84,NW,320,0.0,0.0,86,0.00,CLR,,0.00,WeatherDisplay:10.37,2013-09-20 15:20:00,
2013-09-21 01:25:00,66.8,62.8,29.84,NW,320,0.0,0.0,87,0.00,SCT,,0.00,WeatherDisplay:10.37,2013-09-20 15:25:00,
2013-09-21 01:30:00,66.8,62.8,29.84,NW,320,0.0,0.0,87,0.00,SCT,,0.00,WeatherDisplay:10.37,2013-09-20 15:30:00,
2013-09-21 01:35:00,66.9,62.9,29.84,NW,320,0.0,0.0,87,0.00,SCT,,0.00,WeatherDisplay:10.37,2013-09-20 15:35:00,
2013-09-21 01:40:00,67.2,63.5,29.84,NW,320,0.0,0.0,88,0.00,SCT,,0.00,WeatherDisplay:10.37,2013-09-20 15:40:00,
2013-09-21 01:45:00,67.4,63.7,29.83,NW,320,0.0,0.0,88,0.00,SCT,,0.00,WeatherDisplay:10.37,2013-09-20 15:45:00,
2013-09-21 01:50:00,67.5,63.8,29.83,NW,320,0.0,0.0,88,0.00,SCT,,0.00,WeatherDisplay:10.37,2013-09-20 15:50:00,
2013-09-21 01:55:00,67.6,63.9,29.83,NW,320,0.0,0.0,88,0.00,SCT,,0.00,WeatherDisplay:10.37,2013-09-20 15:55:00,
2013-09-21 02:00:00,67.7,64.0,29.83,NW,320,0.0,0.0,88,0.00,SCT,,0.00,WeatherDisplay:10.37,2013-09-20 16:00:00,
2013-09-21 02:10:00,67.8,64.1,29.83,NW,320,0.0,0.0,88,0.00,SCT,,0.00,WeatherDisplay:10.37,2013-09-20 16:10:00,
2013-09-21 02:15:00,67.8,64.1,29.83,NW,320,0.0,0.0,88,0.00,SCT,,0.00,WeatherDisplay:10.37,2013-09-20 16:15:00,
2013-09-21 02:20:00,67.8,64.1,29.83,NW,320,0.0,0.0,88,0.00,SCT,,0.00,WeatherDisplay:10.37,2013-09-20 16:20:00,
2013-09-21 02:25:00,67.6,63.9,29.83,NW,320,0.0,0.0,88,0.00,SCT,,0.00,WeatherDisplay:10.37,2013-09-20 16:25:00,
2013-09-21 02:30:00,67.6,63.9,29.83,NW,320,0.0,1.0,88,0.00,SCT,,0.00,WeatherDisplay:10.37,2013-09-20 16:30:00,
2013-09-21 02:35:00,67.6,64.2,29.82,NW,320,0.0,0.0,89,0.00,SCT,,0.00,WeatherDisplay:10.37,2013-09-20 16:35:00,
2013-09-21 02:40:00,67.7,64.3,29.82,NW,320,0.0,2.0,89,0.00,SCT,,0.00,WeatherDisplay:10.37,2013-09-20 16:40:00,
2013-09-21 02:45:00,67.9,64.5,29.83,NW,320,0.0,2.0,89,0.00,SCT,,0.00,WeatherDisplay:10.37,2013-09-20 16:45:00,
2013-09-21 02:50:00,68.2,64.8,29.83,NW,319,0.0,3.0,89,0.00,SCT,,0.00,WeatherDisplay:10.37,2013-09-20 16:50:00,
2013-09-21 02:55:00,68.3,65.0,29.83,NW,318,0.0,1.0,89,0.00,SCT,,0.00,WeatherDisplay:10.37,2013-09-20 16:55:00,
2013-09-21 03:00:00,68.4,65.0,29.83,NW,316,0.0,2.0,89,0.00,SCT,,0.00,WeatherDisplay:10.37,2013-09-20 17:00:00,
2013-09-21 03:10:00,68.5,64.8,29.83,NW,312,0.0,3.0,88,0.00,FEW,,0.00,WeatherDisplay:10.37,2013-09-20 17:10:00,
2013-09-21 03:15:00,68.5,64.8,29.83,NW,308,1.0,2.0,88,0.00,FEW,,0.00,WeatherDisplay:10.37,2013-09-20 17:15:00,
2013-09-21 03:20:00,68.5,64.8,29.83,NW,307,0.0,2.0,88,0.00,FEW,,0.00,WeatherDisplay:10.37,2013-09-20 17:20:00,
2013-09-21 03:25:00,68.5,64.8,29.83,NW,306,1.0,3.0,88,0.00,SCT,,0.00,WeatherDisplay:10.37,2013-09-20 17:25:00,
2013-09-21 03:30:00,68.4,64.4,29.83,WNW,302,1.0,3.0,87,0.00,SCT,,0.00,WeatherDisplay:10.37,2013-09-20 17:30:00,
2013-09-21 03:35:00,68.3,64.3,29.83,WNW,294,0.0,2.0,87,0.00,SCT,,0.00,WeatherDisplay:10.37,2013-09-20 17:35:00,
2013-09-21 03:40:00,68.3,64.3,29.83,West,275,1.0,3.0,87,0.00,SCT,,0.00,WeatherDisplay:10.37,2013-09-20 17:40:00,
2013-09-21 03:45:00,68.4,64.4,29.82,WSW,255,0.0,1.0,87,0.00,SCT,,0.00,WeatherDisplay:10.37,2013-09-20 17:45:00,
2013-09-21 03:50:00,68.5,64.5,29.82,WSW,251,0.0,1.0,87,0.00,SCT,,0.00,WeatherDisplay:10.37,2013-09-20 17:50:00,
2013-09-21 03:55:00,68.6,64.2,29.82,WSW,251,0.0,2.0,86,0.00,SCT,,0.00,WeatherDisplay:10.37,2013-09-20 17:55:00,
2013-09-21 04:00:00,68.6,64.2,29.82,WSW,251,0.0,1.0,86,0.00,SCT,,0.00,WeatherDisplay:10.37,2013-09-20 18:00:00,
2013-09-21 04:10:00,68.6,64.2,29.82,WSW,251,0.0,2.0,86,0.00,SCT,,0.00,WeatherDisplay:10.37,2013-09-20 18:10:00,
2013-09-21 04:15:00,68.6,64.2,29.83,WSW,251,0.0,2.0,86,0.00,SCT,,0.00,WeatherDisplay:10.37,2013-09-20 18:15:00,
2013-09-21 04:20:00,68.5,64.2,29.83,WSW,251,0.0,2.0,86,0.00,SCT,,0.00,WeatherDisplay:10.37,2013-09-20 18:20:00,
2013-09-21 04:25:00,68.5,64.1,29.83,WSW,251,0.0,3.0,86,0.00,FEW,,0.00,WeatherDisplay:10.37,2013-09-20 18:25:00,
2013-09-21 04:30:00,68.4,64.0,29.83,WSW,251,0.0,1.0,86,0.00,FEW,,0.00,WeatherDisplay:10.37,2013-09-20 18:30:00,
2013-09-21 04:35:00,68.3,63.9,29.84,SW,236,0.0,5.0,86,0.00,FEW,,0.00,WeatherDisplay:10.37,2013-09-20 18:35:00,
2013-09-21 04:40:00,68.0,63.7,29.84,SSW,210,1.0,5.0,86,0.00,FEW,,0.00,WeatherDisplay:10.37,2013-09-20 18:40:00,
2013-09-21 04:45:00,67.8,63.5,29.84,SSW,213,0.0,2.0,86,0.00,FEW,,0.00,WeatherDisplay:10.37,2013-09-20 18:45:00,
2013-09-21 04:50:00,67.7,63.3,29.84,SW,228,0.0,3.0,86,0.00,FEW,,0.00,WeatherDisplay:10.37,2013-09-20 18:50:00,
2013-09-21 04:55:00,67.5,63.2,29.84,SW,234,0.0,2.0,86,0.00,FEW,,0.00,WeatherDisplay:10.37,2013-09-20 18:55:00,
2013-09-21 05:00:00,67.3,63.0,29.85,SW,232,0.0,3.0,86,0.00,FEW,,0.00,WeatherDisplay:10.37,2013-09-20 19:00:00,
2013-09-21 05:05:00,67.1,62.8,29.85,SW,221,0.0,2.0,86,0.00,FEW,,0.00,WeatherDisplay:10.37,2013-09-20 19:05:00,
2013-09-21 05:10:00,67.0,62.7,29.85,SSW,207,0.0,2.0,86,0.00,FEW,,0.00,WeatherDisplay:10.37,2013-09-20 19:10:00,
2013-09-21 05:15:00,67.0,62.7,29.85,SSW,209,0.0,1.0,86,0.00,FEW,,0.00,WeatherDisplay:10.37,2013-09-20 19:15:00,
2013-09-21 05:20:00,67.0,62.7,29.85,SSW,212,0.0,1.0,86,0.00,FEW,,0.00,WeatherDisplay:10.37,2013-09-20 19:20:00,
2013-09-21 05:25:00,66.9,62.2,29.85,SSW,212,0.0,1.0,85,0.00,FEW,,0.00,WeatherDisplay:10.37,2013-09-20 19:25:00,
2013-09-21 05:30:00,66.8,62.5,29.85,SSW,212,0.0,0.0,86,0.00,FEW,,0.00,WeatherDisplay:10.37,2013-09-20 19:30:00,
2013-09-21 05:35:00,66.8,62.5,29.85,SSW,212,0.0,1.0,86,0.00,FEW,,0.00,WeatherDisplay:10.37,2013-09-20 19:35:00,
2013-09-21 05:40:00,66.8,62.8,29.85,SSW,212,0.0,1.0,87,0.00,FEW,,0.00,WeatherDisplay:10.37,2013-09-20 19:40:00,
2013-09-21 05:45:00,66.6,62.6,29.85,SSW,212,0.0,0.0,87,0.00,FEW,,0.00,WeatherDisplay:10.37,2013-09-20 19:45:00,
2013-09-21 05:50:00,66.4,62.4,29.86,SSW,212,0.0,2.0,87,0.00,FEW,,0.00,WeatherDisplay:10.37,2013-09-20 19:50:00,
2013-09-21 05:55:00,66.4,62.8,29.86,SSW,212,0.0,1.0,88,0.00,FEW,,0.00,WeatherDisplay:10.37,2013-09-20 19:55:00,
2013-09-21 06:00:00,66.3,62.6,29.86,SSW,212,0.0,1.0,88,0.00,FEW,,0.00,WeatherDisplay:10.37,2013-09-20 20:00:00,
2013-09-21 06:10:00,66.0,62.3,29.87,SSW,212,0.0,0.0,88,0.00,FEW,,0.00,WeatherDisplay:10.37,2013-09-20 20:10:00,
2013-09-21 06:15:00,65.8,62.1,29.87,SSW,212,0.0,0.0,88,0.00,FEW,,0.00,WeatherDisplay:10.37,2013-09-20 20:15:00,
2013-09-21 06:20:00,65.7,62.0,29.87,SSW,212,0.0,0.0,88,0.00,FEW,,0.00,WeatherDisplay:10.37,2013-09-20 20:20:00,
2013-09-21 06:25:00,65.6,62.3,29.87,SSW,212,0.0,0.0,89,0.00,FEW,,0.00,WeatherDisplay:10.37,2013-09-20 20:25:00,
2013-09-21 06:30:00,65.6,62.3,29.88,SSW,212,0.0,0.0,89,0.00,FEW,,0.00,WeatherDisplay:10.37,2013-09-20 20:30:00,
2013-09-21 06:35:00,65.6,62.3,29.89,SSW,212,0.0,0.0,89,0.00,FEW,,0.00,WeatherDisplay:10.37,2013-09-20 20:35:00,
2013-09-21 06:40:00,65.5,62.2,29.89,SSW,212,0.0,1.0,89,0.00,FEW,,0.00,WeatherDisplay:10.37,2013-09-20 20:40:00,
2013-09-21 06:45:00,65.6,62.3,29.89,SSW,212,0.0,1.0,89,0.00,FEW,,0.00,WeatherDisplay:10.37,2013-09-20 20:45:00,
2013-09-21 06:50:00,65.6,62.3,29.89,SSW,212,0.0,1.0,89,0.00,FEW,,0.00,WeatherDisplay:10.37,2013-09-20 20:50:00,
2013-09-21 06:55:00,65.8,62.5,29.90,SSW,212,0.0,1.0,89,0.00,FEW,,0.00,WeatherDisplay:10.37,2013-09-20 20:55:00,
2013-09-21 07:00:00,66.1,62.8,29.90,SSW,212,0.0,2.0,89,0.00,FEW,,0.00,WeatherDisplay:10.37,2013-09-20 21:00:00,
2013-09-21 07:10:00,66.5,62.8,29.90,SSW,209,0.0,2.0,88,0.00,FEW,,0.00,WeatherDisplay:10.37,2013-09-20 21:10:00,
2013-09-21 07:15:00,67.0,63.0,29.90,SSW,207,0.0,3.0,87,0.00,FEW,,0.00,WeatherDisplay:10.37,2013-09-20 21:15:00,
2013-09-21 07:25:00,68.2,63.5,29.91,SW,215,0.0,3.0,85,0.00,FEW,,0.00,WeatherDisplay:10.37,2013-09-20 21:25:00,
2013-09-21 07:30:00,68.8,63.8,29.91,SSW,203,1.0,5.0,84,0.00,FEW,,0.00,WeatherDisplay:10.37,2013-09-20 21:30:00,
2013-09-21 07:35:00,69.5,64.4,29.91,SSW,209,0.0,4.0,84,0.00,FEW,,0.00,WeatherDisplay:10.37,2013-09-20 21:35:00,
2013-09-21 07:40:00,70.1,64.7,29.91,SSW,201,1.0,4.0,83,0.00,FEW,,0.00,WeatherDisplay:10.37,2013-09-20 21:40:00,
2013-09-21 07:45:00,70.8,65.0,29.91,South,173,1.0,3.0,82,0.00,FEW,,0.00,WeatherDisplay:10.37,2013-09-20 21:45:00,
2013-09-21 07:50:00,71.3,65.2,29.92,SSW,192,1.0,3.0,81,0.00,FEW,,0.00,WeatherDisplay:10.37,2013-09-20 21:50:00,
2013-09-21 07:55:00,71.7,65.6,29.92,SSW,210,0.0,3.0,81,0.00,FEW,,0.00,WeatherDisplay:10.37,2013-09-20 21:55:00,
2013-09-21 08:00:00,72.2,66.1,29.92,SSW,212,1.0,4.0,81,0.00,FEW,,0.00,WeatherDisplay:10.37,2013-09-20 22:00:00,
2013-09-21 08:10:00,73.5,66.6,29.92,SSW,207,0.0,2.0,79,0.00,FEW,,0.00,WeatherDisplay:10.37,2013-09-20 22:10:00,
2013-09-21 08:15:00,74.2,67.3,29.92,SSW,208,0.0,3.0,79,0.00,FEW,,0.00,WeatherDisplay:10.37,2013-09-20 22:15:00,
2013-09-21 08:20:00,74.9,67.2,29.92,SSW,202,0.0,3.0,77,0.00,FEW,,0.00,WeatherDisplay:10.37,2013-09-20 22:20:00,
2013-09-21 08:25:00,75.6,67.9,29.92,SSW,202,1.0,3.0,77,0.00,FEW,,0.00,WeatherDisplay:10.37,2013-09-20 22:25:00,
2013-09-21 08:30:00,76.2,68.1,29.92,SSW,212,0.0,3.0,76,0.00,FEW,,0.00,WeatherDisplay:10.37,2013-09-20 22:30:00,
2013-09-21 08:35:00,76.9,68.3,29.92,SW,216,0.0,2.0,75,0.00,FEW,,0.00,WeatherDisplay:10.37,2013-09-20 22:35:00,
2013-09-21 08:40:00,77.3,68.4,29.92,South,181,1.0,4.0,74,0.00,FEW,,0.00,WeatherDisplay:10.37,2013-09-20 22:40:00,
2013-09-21 08:45:00,77.5,68.5,29.92,SSE,153,0.0,5.0,74,0.00,FEW,,0.00,WeatherDisplay:10.37,2013-09-20 22:45:00,
2013-09-21 08:50:00,77.7,68.8,29.92,SSE,166,0.0,5.0,74,0.00,FEW,,0.00,WeatherDisplay:10.37,2013-09-20 22:50:00,
2013-09-21 08:55:00,77.9,68.9,29.92,South,175,1.0,4.0,74,0.00,FEW,,0.00,WeatherDisplay:10.37,2013-09-20 22:55:00,
2013-09-21 09:00:00,78.3,68.9,29.92,SSE,160,1.0,3.0,73,0.00,FEW,,0.00,WeatherDisplay:10.37,2013-09-20 23:00:00,
2013-09-21 09:10:00,79.4,69.6,29.92,SSE,157,0.0,3.0,72,0.00,FEW,,0.00,WeatherDisplay:10.37,2013-09-20 23:10:00,
2013-09-21 09:15:00,80.0,69.8,29.92,SSE,148,2.0,4.0,71,0.00,FEW,,0.00,WeatherDisplay:10.37,2013-09-20 23:15:00,
2013-09-21 09:20:00,80.3,70.4,29.92,SE,127,1.0,4.0,72,0.00,FEW,,0.00,WeatherDisplay:10.37,2013-09-20 23:20:00,
2013-09-21 09:25:00,80.7,71.2,29.92,ESE,111,2.0,4.0,73,0.00,FEW,,0.00,WeatherDisplay:10.37,2013-09-20 23:25:00,
2013-09-21 09:35:00,80.7,71.2,29.92,East,93,2.0,4.0,73,0.00,FEW,,0.00,WeatherDisplay:10.37,2013-09-20 23:35:00,
2013-09-21 09:40:00,81.2,71.3,29.92,East,91,1.0,4.0,72,0.00,FEW,,0.00,WeatherDisplay:10.37,2013-09-20 23:40:00,
2013-09-21 09:45:00,81.5,71.6,29.92,East,92,3.0,5.0,72,0.00,FEW,,0.00,WeatherDisplay:10.37,2013-09-20 23:45:00,
2013-09-21 09:50:00,81.8,72.3,29.92,East,82,2.0,4.0,73,0.00,FEW,,0.00,WeatherDisplay:10.37,2013-09-20 23:50:00,
2013-09-21 09:55:00,82.0,72.1,29.92,ENE,75,0.0,3.0,72,0.00,FEW,,0.00,WeatherDisplay:10.37,2013-09-20 23:55:00,
2013-09-21 10:00:00,82.4,72.5,29.92,ENE,72,0.0,3.0,72,0.00,FEW,,0.00,WeatherDisplay:10.37,2013-09-21 00:00:00,
2013-09-21 10:10:00,83.5,72.7,29.92,ENE,72,0.0,1.0,70,0.00,FEW,,0.00,WeatherDisplay:10.37,2013-09-21 00:10:00,
2013-09-21 10:15:00,83.9,72.6,29.92,ENE,72,0.0,2.0,69,0.00,FEW,,0.00,WeatherDisplay:10.37,2013-09-21 00:15:00,
2013-09-21 10:20:00,84.1,72.8,29.92,ENE,72,0.0,3.0,69,0.00,FEW,,0.00,WeatherDisplay:10.37,2013-09-21 00:20:00,
2013-09-21 10:25:00,83.6,72.7,29.92,ENE,67,0.0,3.0,70,0.00,FEW,,0.00,WeatherDisplay:10.37,2013-09-21 00:25:00,
2013-09-21 10:30:00,82.7,71.9,29.92,NE,52,0.0,4.0,70,0.00,FEW,,0.00,WeatherDisplay:10.37,2013-09-21 00:30:00,
2013-09-21 10:35:00,82.2,72.3,29.92,NE,44,1.0,3.0,72,0.00,FEW,,0.00,WeatherDisplay:10.37,2013-09-21 00:35:00,
2013-09-21 10:40:00,82.0,72.5,29.92,NE,42,1.0,3.0,73,0.00,FEW,,0.00,WeatherDisplay:10.37,2013-09-21 00:40:00,
2013-09-21 10:50:00,81.4,72.7,29.91,NNE,32,1.0,3.0,75,0.00,FEW,,0.00,WeatherDisplay:10.37,2013-09-21 00:50:00,
2013-09-21 10:55:00,81.2,72.5,29.91,NNE,31,1.0,5.0,75,0.00,FEW,,0.00,WeatherDisplay:10.37,2013-09-21 00:55:00,
2013-09-21 11:00:00,81.1,72.4,29.90,NNE,29,1.0,4.0,75,0.00,FEW,,0.00,WeatherDisplay:10.37,2013-09-21 01:00:00,
2013-09-21 11:05:00,81.0,72.7,29.90,NNE,28,1.0,4.0,76,0.00,FEW,,0.00,WeatherDisplay:10.37,2013-09-21 01:05:00,
2013-09-21 11:10:00,81.0,72.3,29.90,NNE,27,0.0,3.0,75,0.00,FEW,,0.00,WeatherDisplay:10.37,2013-09-21 01:10:00,
2013-09-21 11:15:00,81.0,72.3,29.90,NNE,26,0.0,4.0,75,0.00,FEW,,0.00,WeatherDisplay:10.37,2013-09-21 01:15:00,
2013-09-21 11:20:00,81.1,72.4,29.89,NNE,26,2.0,4.0,75,0.00,FEW,,0.00,WeatherDisplay:10.37,2013-09-21 01:20:00,
2013-09-21 11:25:00,81.0,72.3,29.89,NNE,26,0.0,4.0,75,0.00,FEW,,0.00,WeatherDisplay:10.37,2013-09-21 01:25:00,
2013-09-21 11:30:00,81.3,72.6,29.89,NNE,26,0.0,3.0,75,0.00,FEW,,0.00,WeatherDisplay:10.37,2013-09-21 01:30:00,
2013-09-21 11:35:00,81.6,72.5,29.89,NNE,26,1.0,4.0,74,0.00,FEW,,0.00,WeatherDisplay:10.37,2013-09-21 01:35:00,
2013-09-21 11:40:00,81.8,72.7,29.88,NNE,26,1.0,3.0,74,0.00,FEW,,0.00,WeatherDisplay:10.37,2013-09-21 01:40:00,
2013-09-21 11:45:00,82.3,73.1,29.88,NNE,26,1.0,3.0,74,0.00,FEW,,0.00,WeatherDisplay:10.37,2013-09-21 01:45:00,
2013-09-21 11:50:00,82.9,73.3,29.88,NNE,26,1.0,3.0,73,0.00,FEW,,0.00,WeatherDisplay:10.37,2013-09-21 01:50:00,
2013-09-21 11:55:00,82.9,72.9,29.88,NNE,25,2.0,5.0,72,0.00,FEW,,0.00,WeatherDisplay:10.37,2013-09-21 01:55:00,
2013-09-21 12:00:00,82.4,72.9,29.88,NNE,23,2.0,5.0,73,0.00,FEW,,0.00,WeatherDisplay:10.37,2013-09-21 02:00:00,
2013-09-21 12:10:00,81.6,72.5,29.87,NNE,21,0.0,0.0,74,0.00,FEW,,0.00,WeatherDisplay:10.37,2013-09-21 02:10:00,
2013-09-21 12:15:00,81.5,72.4,29.87,NNE,21,0.0,0.0,74,0.00,FEW,,0.00,WeatherDisplay:10.37,2013-09-21 02:15:00,
2013-09-21 12:20:00,81.4,72.7,29.87,NNE,20,0.0,0.0,75,0.00,FEW,,0.00,WeatherDisplay:10.37,2013-09-21 02:20:00,
2013-09-21 12:25:00,81.2,72.9,29.86,NNE,19,0.0,0.0,76,0.00,FEW,,0.00,WeatherDisplay:10.37,2013-09-21 02:25:00,
2013-09-21 12:30:00,81.1,72.4,29.86,NNE,19,0.0,0.0,75,0.00,FEW,,0.00,WeatherDisplay:10.37,2013-09-21 02:30:00,
2013-09-21 12:35:00,81.0,71.9,29.85,NNE,18,0.0,0.0,74,0.00,FEW,,0.00,WeatherDisplay:10.37,2013-09-21 02:35:00,
2013-09-21 12:40:00,80.9,71.8,29.85,NNE,17,0.0,0.0,74,0.00,FEW,,0.00,WeatherDisplay:10.37,2013-09-21 02:40:00,
2013-09-21 12:45:00,81.0,72.3,29.85,NNE,16,0.0,0.0,75,0.00,FEW,,0.00,WeatherDisplay:10.37,2013-09-21 02:45:00,
2013-09-21 12:50:00,81.0,72.7,29.85,NNE,15,0.0,0.0,76,0.00,FEW,,0.00,WeatherDisplay:10.37,2013-09-21 02:50:00,
2013-09-21 13:00:00,80.9,72.6,29.85,NNE,16,0.0,0.0,76,0.00,FEW,,0.00,WeatherDisplay:10.37,2013-09-21 03:00:00,
2013-09-21 13:05:00,80.9,72.2,29.85,NNE,16,0.0,0.0,75,0.00,FEW,,0.00,WeatherDisplay:10.37,2013-09-21 03:05:00,
2013-09-21 13:10:00,80.8,72.1,29.84,NNE,15,0.0,0.0,75,0.00,FEW,,0.00,WeatherDisplay:10.37,2013-09-21 03:10:00,
2013-09-21 13:15:00,80.8,72.9,29.84,NNE,15,0.0,0.0,77,0.00,FEW,,0.00,WeatherDisplay:10.37,2013-09-21 03:15:00,
2013-09-21 13:20:00,80.9,72.3,29.84,NNE,15,0.0,0.0,75,0.00,FEW,,0.00,WeatherDisplay:10.37,2013-09-21 03:20:00,
2013-09-21 13:25:00,81.1,72.9,29.84,NNE,14,0.0,0.0,76,0.00,FEW,,0.00,WeatherDisplay:10.37,2013-09-21 03:25:00,
2013-09-21 13:30:00,81.4,73.1,29.83,NNE,14,0.0,0.0,76,0.00,FEW,,0.00,WeatherDisplay:10.37,2013-09-21 03:30:00,
2013-09-21 13:35:00,81.2,72.9,29.83,NNE,14,0.0,0.0,76,0.00,FEW,,0.00,WeatherDisplay:10.37,2013-09-21 03:35:00,
2013-09-21 13:40:00,81.2,72.9,29.83,NNE,15,0.0,0.0,76,0.00,FEW,,0.00,WeatherDisplay:10.37,2013-09-21 03:40:00,
2013-09-21 13:45:00,81.1,72.8,29.83,NNE,16,0.0,0.0,76,0.00,FEW,,0.00,WeatherDisplay:10.37,2013-09-21 03:45:00,
2013-09-21 13:50:00,80.9,73.0,29.83,NNE,19,0.0,0.0,77,0.00,FEW,,0.00,WeatherDisplay:10.37,2013-09-21 03:50:00,
2013-09-21 13:55:00,81.2,72.9,29.82,NNE,21,0.0,0.0,76,0.00,FEW,,0.00,WeatherDisplay:10.37,2013-09-21 03:55:00,
2013-09-21 14:00:00,81.2,73.3,29.82,NNE,18,0.0,0.0,77,0.00,FEW,,0.00,WeatherDisplay:10.37,2013-09-21 04:00:00,
2013-09-21 14:05:00,80.9,72.6,29.82,NNE,16,0.0,0.0,76,0.00,FEW,,0.00,WeatherDisplay:10.37,2013-09-21 04:05:00,
2013-09-21 14:10:00,80.7,73.2,29.82,NNE,18,0.0,0.0,78,0.00,FEW,,0.00,WeatherDisplay:10.37,2013-09-21 04:10:00,
2013-09-21 14:15:00,80.4,72.5,29.81,NNE,18,0.0,0.0,77,0.00,FEW,,0.00,WeatherDisplay:10.37,2013-09-21 04:15:00,
2013-09-21 14:20:00,80.3,72.4,29.81,NNE,17,0.0,0.0,77,0.00,FEW,,0.00,WeatherDisplay:10.37,2013-09-21 04:20:00,
2013-09-21 14:25:00,80.3,72.4,29.81,NNE,17,0.0,0.0,77,0.00,FEW,,0.00,WeatherDisplay:10.37,2013-09-21 04:25:00,
2013-09-21 14:30:00,80.3,72.4,29.81,NNE,18,0.0,0.0,77,0.00,FEW,,0.00,WeatherDisplay:10.37,2013-09-21 04:30:00,
2013-09-21 14:35:00,80.3,72.4,29.81,NNE,17,0.0,0.0,77,0.00,FEW,,0.00,WeatherDisplay:10.37,2013-09-21 04:35:00,
2013-09-21 14:40:00,80.4,72.5,29.80,NNE,16,0.0,0.0,77,0.00,FEW,,0.00,WeatherDisplay:10.37,2013-09-21 04:40:00,
2013-09-21 14:45:00,80.5,73.0,29.80,NNE,15,0.0,0.0,78,0.00,FEW,,0.00,WeatherDisplay:10.37,2013-09-21 04:45:00,
2013-09-21 14:50:00,80.6,72.7,29.80,NNE,16,0.0,0.0,77,0.00,FEW,,0.00,WeatherDisplay:10.37,2013-09-21 04:50:00,
2013-09-21 14:55:00,80.6,72.7,29.80,NNE,15,0.0,0.0,77,0.00,FEW,,0.00,WeatherDisplay:10.37,2013-09-21 04:55:00,
2013-09-21 15:00:00,80.3,72.4,29.80,NNE,16,0.0,0.0,77,0.00,FEW,,0.00,WeatherDisplay:10.37,2013-09-21 05:00:00,
2013-09-21 15:10:00,80.0,72.1,29.80,NNE,16,0.0,0.0,77,0.00,FEW,,0.00,WeatherDisplay:10.37,2013-09-21 05:10:00,
2013-09-21 15:15:00,80.2,72.7,29.79,NNE,16,0.0,0.0,78,0.00,FEW,,0.00,WeatherDisplay:10.37,2013-09-21 05:15:00,
2013-09-21 15:20:00,80.4,72.9,29.79,NNE,15,0.0,0.0,78,0.00,FEW,,0.00,WeatherDisplay:10.37,2013-09-21 05:20:00,
2013-09-21 15:25:00,80.7,72.8,29.79,NNE,16,0.0,0.0,77,0.00,FEW,,0.00,WeatherDisplay:10.37,2013-09-21 05:25:00,
2013-09-21 15:30:00,80.9,73.0,29.79,NNE,16,0.0,0.0,77,0.00,FEW,,0.00,WeatherDisplay:10.37,2013-09-21 05:30:00,
2013-09-21 15:35:00,81.1,72.8,29.79,NNE,16,0.0,0.0,76,0.00,FEW,,0.00,WeatherDisplay:10.37,2013-09-21 05:35:00,
2013-09-21 15:40:00,81.2,72.9,29.79,NNE,17,0.0,0.0,76,0.00,FEW,,0.00,WeatherDisplay:10.37,2013-09-21 05:40:00,
2013-09-21 15:45:00,81.2,72.5,29.79,NNE,17,0.0,0.0,75,0.00,FEW,,0.00,WeatherDisplay:10.37,2013-09-21 05:45:00,
2013-09-21 15:55:00,80.9,72.2,29.79,NNE,17,0.0,0.0,75,0.00,FEW,,0.00,WeatherDisplay:10.37,2013-09-21 05:55:00,
2013-09-21 16:00:00,80.8,72.5,29.79,NNE,17,0.0,0.0,76,0.00,FEW,,0.00,WeatherDisplay:10.37,2013-09-21 06:00:00,
2013-09-21 16:10:00,80.4,72.5,29.79,NNE,18,0.0,0.0,77,0.00,FEW,,0.00,WeatherDisplay:10.37,2013-09-21 06:10:00,
2013-09-21 16:20:00,80.0,72.5,29.79,NNE,18,0.0,0.0,78,0.00,FEW,,0.00,WeatherDisplay:10.37,2013-09-21 06:20:00,
2013-09-21 16:25:00,79.8,72.3,29.79,NNE,18,0.0,0.0,78,0.00,FEW,,0.00,WeatherDisplay:10.37,2013-09-21 06:25:00,
2013-09-21 16:30:00,79.6,72.1,29.79,NNE,18,0.0,0.0,78,0.00,FEW,,0.00,WeatherDisplay:10.37,2013-09-21 06:30:00,
2013-09-21 16:35:00,79.5,72.1,29.79,NNE,18,0.0,0.0,78,0.00,FEW,,0.00,WeatherDisplay:10.37,2013-09-21 06:35:00,
2013-09-21 16:40:00,79.4,71.9,29.79,NNE,18,0.0,0.0,78,0.00,FEW,,0.00,WeatherDisplay:10.37,2013-09-21 06:40:00,
2013-09-21 16:45:00,79.2,71.7,29.79,NNE,18,0.0,0.0,78,0.00,FEW,,0.00,WeatherDisplay:10.37,2013-09-21 06:45:00,
2013-09-21 16:50:00,79.0,71.9,29.79,NNE,18,0.0,0.0,79,0.00,FEW,,0.00,WeatherDisplay:10.37,2013-09-21 06:50:00,
2013-09-21 16:55:00,78.7,71.6,29.79,NNE,18,0.0,0.0,79,0.00,FEW,,0.00,WeatherDisplay:10.37,2013-09-21 06:55:00,
2013-09-21 17:00:00,78.5,71.4,29.79,NNE,17,0.0,0.0,79,0.00,FEW,,0.00,WeatherDisplay:10.37,2013-09-21 07:00:00,
2013-09-21 17:05:00,78.5,71.8,29.79,NNE,17,0.0,0.0,80,0.00,FEW,,0.00,WeatherDisplay:10.37,2013-09-21 07:05:00,
2013-09-21 17:10:00,78.3,71.3,29.79,NNE,17,0.0,0.0,79,0.00,FEW,,0.00,WeatherDisplay:10.37,2013-09-21 07:10:00,
2013-09-21 17:15:00,78.1,71.5,29.79,NNE,17,0.0,0.0,80,0.00,FEW,,0.00,WeatherDisplay:10.37,2013-09-21 07:15:00,
2013-09-21 17:25:00,77.8,71.1,29.79,NNE,15,0.0,0.0,80,0.00,FEW,,0.00,WeatherDisplay:10.37,2013-09-21 07:25:00,
2013-09-21 17:30:00,77.6,70.9,29.79,NNE,15,0.0,0.0,80,0.00,FEW,,0.00,WeatherDisplay:10.37,2013-09-21 07:30:00,
2013-09-21 17:35:00,77.6,71.3,29.79,NNE,15,0.0,0.0,81,0.00,FEW,,0.00,WeatherDisplay:10.37,2013-09-21 07:35:00,
2013-09-21 17:40:00,77.6,71.3,29.80,NNE,15,0.0,0.0,81,0.00,FEW,,0.00,WeatherDisplay:10.37,2013-09-21 07:40:00,
2013-09-21 17:45:00,77.6,71.3,29.80,NNE,15,0.0,0.0,81,0.00,FEW,,0.00,WeatherDisplay:10.37,2013-09-21 07:45:00,
2013-09-21 17:55:00,77.4,71.1,29.80,NNE,15,0.0,0.0,81,0.00,FEW,,0.00,WeatherDisplay:10.37,2013-09-21 07:55:00,
2013-09-21 18:00:00,77.3,71.1,29.81,NNE,15,0.0,0.0,81,0.00,FEW,,0.00,WeatherDisplay:10.37,2013-09-21 08:00:00,
2013-09-21 18:10:00,77.2,70.9,29.81,NNE,15,0.0,0.0,81,0.00,FEW,,0.00,WeatherDisplay:10.37,2013-09-21 08:10:00,
2013-09-21 18:15:00,77.1,70.8,29.81,NNE,15,0.0,0.0,81,0.00,FEW,,0.00,WeatherDisplay:10.37,2013-09-21 08:15:00,
2013-09-21 18:20:00,77.0,70.7,29.81,NNE,15,0.0,0.0,81,0.00,FEW,,0.00,WeatherDisplay:10.37,2013-09-21 08:20:00,
2013-09-21 18:25:00,76.9,71.0,29.81,NNE,15,0.0,0.0,82,0.00,FEW,,0.00,WeatherDisplay:10.37,2013-09-21 08:25:00,
2013-09-21 18:30:00,76.8,70.5,29.81,NNE,15,0.0,0.0,81,0.00,FEW,,0.00,WeatherDisplay:10.37,2013-09-21 08:30:00,
2013-09-21 18:35:00,76.7,70.8,29.82,NNE,15,0.0,0.0,82,0.00,FEW,,0.00,WeatherDisplay:10.37,2013-09-21 08:35:00,
2013-09-21 18:40:00,76.7,70.7,29.82,NNE,15,0.0,0.0,82,0.00,FEW,,0.00,WeatherDisplay:10.37,2013-09-21 08:40:00,
2013-09-21 18:45:00,76.6,70.7,29.82,NNE,15,0.0,0.0,82,0.00,FEW,,0.00,WeatherDisplay:10.37,2013-09-21 08:45:00,
2013-09-21 18:50:00,76.5,70.6,29.82,NNE,15,0.0,0.0,82,0.00,FEW,,0.00,WeatherDisplay:10.37,2013-09-21 08:50:00,
2013-09-21 18:55:00,76.4,70.5,29.82,NNE,15,0.0,0.0,82,0.00,FEW,,0.00,WeatherDisplay:10.37,2013-09-21 08:55:00,
2013-09-21 19:00:00,76.2,70.3,29.82,NNE,15,0.0,0.0,82,0.00,FEW,,0.00,WeatherDisplay:10.37,2013-09-21 09:00:00,
2013-09-21 19:10:00,75.8,69.9,29.82,NNE,15,0.0,0.0,82,0.00,FEW,,0.00,WeatherDisplay:10.37,2013-09-21 09:10:00,
2013-09-21 19:15:00,75.4,69.5,29.82,NNE,15,0.0,0.0,82,0.00,FEW,,0.00,WeatherDisplay:10.37,2013-09-21 09:15:00,
2013-09-21 19:20:00,75.0,69.5,29.82,NNE,15,0.0,0.0,83,0.00,FEW,,0.00,WeatherDisplay:10.37,2013-09-21 09:20:00,
2013-09-21 19:25:00,74.8,69.2,29.82,NNE,15,0.0,0.0,83,0.00,FEW,,0.00,WeatherDisplay:10.37,2013-09-21 09:25:00,
2013-09-21 19:30:00,74.5,69.0,29.83,NNE,15,0.0,0.0,83,0.00,FEW,,0.00,WeatherDisplay:10.37,2013-09-21 09:30:00,
2013-09-21 19:35:00,74.2,69.1,29.82,NNE,15,0.0,0.0,84,0.00,FEW,,0.00,WeatherDisplay:10.37,2013-09-21 09:35:00,
2013-09-21 19:40:00,74.1,69.0,29.82,NNE,15,0.0,0.0,84,0.00,FEW,,0.00,WeatherDisplay:10.37,2013-09-21 09:40:00,
2013-09-21 19:45:00,73.9,68.8,29.82,NNE,15,0.0,0.0,84,0.00,FEW,,0.00,WeatherDisplay:10.37,2013-09-21 09:45:00,
2013-09-21 19:50:00,73.7,68.6,29.83,NNE,15,0.0,0.0,84,0.00,FEW,,0.00,WeatherDisplay:10.37,2013-09-21 09:50:00,
2013-09-21 19:55:00,73.4,68.6,29.83,NNE,15,0.0,0.0,85,0.00,CLR,,0.00,WeatherDisplay:10.37,2013-09-21 09:55:00,
2013-09-21 20:00:00,73.2,68.5,29.83,NNE,15,0.0,0.0,85,0.00,CLR,,0.00,WeatherDisplay:10.37,2013-09-21 10:00:00,
2013-09-21 20:10:00,73.0,68.2,29.83,NNE,15,0.0,0.0,85,0.00,CLR,,0.00,WeatherDisplay:10.37,2013-09-21 10:10:00,
2013-09-21 20:15:00,72.9,68.5,29.83,NNE,15,0.0,0.0,86,0.00,CLR,,0.00,WeatherDisplay:10.37,2013-09-21 10:15:00,
2013-09-21 20:20:00,72.9,68.4,29.84,NNE,15,0.0,0.0,86,0.00,CLR,,0.00,WeatherDisplay:10.37,2013-09-21 10:20:00,
2013-09-21 20:25:00,72.8,68.7,29.84,NNE,15,0.0,0.0,87,0.00,CLR,,0.00,WeatherDisplay:10.37,2013-09-21 10:25:00,
2013-09-21 20:30:00,72.8,68.7,29.84,NNE,15,0.0,0.0,87,0.00,CLR,,0.00,WeatherDisplay:10.37,2013-09-21 10:30:00,
2013-09-21 20:35:00,72.6,68.5,29.84,NNE,15,0.0,0.0,87,0.00,CLR,,0.00,WeatherDisplay:10.37,2013-09-21 10:35:00,
2013-09-21 20:45:00,72.1,67.6,29.84,North,7,0.0,0.0,86,0.00,CLR,,0.00,WeatherDisplay:10.37,2013-09-21 10:45:00,
2013-09-21 20:50:00,71.9,67.5,29.84,North,5,0.0,0.0,86,0.00,CLR,,0.00,WeatherDisplay:10.37,2013-09-21 10:50:00,
2013-09-21 20:55:00,71.9,67.4,29.84,North,5,0.0,0.0,86,0.00,SCT,,0.00,WeatherDisplay:10.37,2013-09-21 10:55:00,
2013-09-21 21:00:00,71.8,67.4,29.84,North,5,0.0,0.0,86,0.00,SCT,,0.00,WeatherDisplay:10.37,2013-09-21 11:00:00,
2013-09-21 21:05:00,71.7,67.3,29.84,North,5,0.0,0.0,86,0.00,SCT,,0.00,WeatherDisplay:10.37,2013-09-21 11:05:00,
2013-09-21 21:10:00,71.6,67.2,29.84,North,5,0.0,0.0,86,0.00,SCT,,0.00,WeatherDisplay:10.37,2013-09-21 11:10:00,
2013-09-21 21:15:00,71.5,67.1,29.84,North,5,0.0,0.0,86,0.00,SCT,,0.00,WeatherDisplay:10.37,2013-09-21 11:15:00,
2013-09-21 21:20:00,71.4,67.0,29.84,North,5,0.0,0.0,86,0.00,SCT,,0.00,WeatherDisplay:10.37,2013-09-21 11:20:00,
2013-09-21 21:25:00,71.3,66.9,29.84,North,4,0.0,0.0,86,0.00,SCT,,0.00,WeatherDisplay:10.37,2013-09-21 11:25:00,
2013-09-21 21:30:00,71.2,66.7,29.85,North,4,0.0,0.0,86,0.00,SCT,,0.00,WeatherDisplay:10.37,2013-09-21 11:30:00,
2013-09-21 21:35:00,71.1,66.7,29.85,North,4,0.0,0.0,86,0.00,SCT,,0.00,WeatherDisplay:10.37,2013-09-21 11:35:00,
2013-09-21 21:40:00,71.0,66.6,29.85,North,4,0.0,0.0,86,0.00,SCT,,0.00,WeatherDisplay:10.37,2013-09-21 11:40:00,
2013-09-21 21:45:00,70.9,66.5,29.85,North,358,0.0,0.0,86,0.00,SCT,,0.00,WeatherDisplay:10.37,2013-09-21 11:45:00,
2013-09-21 21:50:00,70.7,66.0,29.85,NNW,343,0.0,0.0,85,0.00,SCT,,0.00,WeatherDisplay:10.37,2013-09-21 11:50:00,
2013-09-21 21:55:00,70.5,65.8,29.85,NNW,329,0.0,0.0,85,0.00,SCT,,0.00,WeatherDisplay:10.37,2013-09-21 11:55:00,
2013-09-21 22:00:00,70.4,65.7,29.85,NW,324,0.0,0.0,85,0.00,SCT,,0.00,WeatherDisplay:10.37,2013-09-21 12:00:00,
2013-09-21 22:10:00,70.5,65.8,29.86,NW,323,0.0,0.0,85,0.00,SCT,,0.00,WeatherDisplay:10.37,2013-09-21 12:10:00,
2013-09-21 22:15:00,70.6,65.9,29.86,NW,323,0.0,0.0,85,0.00,SCT,,0.00,WeatherDisplay:10.37,2013-09-21 12:15:00,
2013-09-21 22:20:00,70.6,65.9,29.86,NW,323,0.0,0.0,85,0.00,SCT,,0.00,WeatherDisplay:10.37,2013-09-21 12:20:00,
2013-09-21 22:25:00,70.6,65.9,29.85,NW,323,0.0,0.0,85,0.00,SCT,,0.00,WeatherDisplay:10.37,2013-09-21 12:25:00,
2013-09-21 22:30:00,70.6,66.2,29.86,NW,323,0.0,0.0,86,0.00,SCT,,0.00,WeatherDisplay:10.37,2013-09-21 12:30:00,
2013-09-21 22:35:00,70.6,66.2,29.86,NW,323,0.0,0.0,86,0.00,SCT,,0.00,WeatherDisplay:10.37,2013-09-21 12:35:00,
2013-09-21 22:40:00,70.6,66.2,29.86,NW,323,0.0,0.0,86,0.00,SCT,,0.00,WeatherDisplay:10.37,2013-09-21 12:40:00,
2013-09-21 22:45:00,70.4,66.0,29.86,NW,323,0.0,0.0,86,0.00,SCT,,0.00,WeatherDisplay:10.37,2013-09-21 12:45:00,
2013-09-21 22:50:00,70.4,66.0,29.85,NW,323,0.0,0.0,86,0.00,SCT,,0.00,WeatherDisplay:10.37,2013-09-21 12:50:00,
2013-09-21 22:55:00,70.2,65.8,29.85,NW,323,0.0,0.0,86,0.00,SCT,,0.00,WeatherDisplay:10.37,2013-09-21 12:55:00,
2013-09-21 23:00:00,70.1,66.0,29.86,NW,323,0.0,0.0,87,0.00,SCT,,0.00,WeatherDisplay:10.37,2013-09-21 13:00:00,
2013-09-21 23:10:00,69.8,65.4,29.86,NW,323,0.0,0.0,86,0.00,SCT,,0.00,WeatherDisplay:10.37,2013-09-21 13:10:00,
2013-09-21 23:15:00,69.6,65.2,29.86,NW,323,0.0,0.0,86,0.00,SCT,,0.00,WeatherDisplay:10.37,2013-09-21 13:15:00,
2013-09-21 23:20:00,69.4,65.0,29.86,NW,323,0.0,0.0,86,0.00,SCT,,0.00,WeatherDisplay:10.37,2013-09-21 13:20:00,
2013-09-21 23:25:00,69.3,64.9,29.85,NW,323,0.0,0.0,86,0.00,SCT,,0.00,WeatherDisplay:10.37,2013-09-21 13:25:00,
2013-09-21 23:30:00,69.2,64.8,29.85,NW,323,0.0,0.0,86,0.00,SCT,,0.00,WeatherDisplay:10.37,2013-09-21 13:30:00,
2013-09-21 23:35:00,69.1,64.8,29.85,NW,323,0.0,0.0,86,0.00,SCT,,0.00,WeatherDisplay:10.37,2013-09-21 13:35:00,
2013-09-21 23:40:00,69.0,64.7,29.85,NW,323,0.0,0.0,86,0.00,SCT,,0.00,WeatherDisplay:10.37,2013-09-21 13:40:00,
2013-09-21 23:45:00,68.9,64.6,29.85,NW,323,0.0,0.0,86,0.00,SCT,,0.00,WeatherDisplay:10.37,2013-09-21 13:45:00,
2013-09-21 23:50:00,68.8,64.4,29.85,NW,323,0.0,0.0,86,0.00,SCT,,0.00,WeatherDisplay:10.37,2013-09-21 13:50:00,